Time,TemperatureF,DewpointF,PressureIn,WindDirection,WindDirectionDegrees,WindSpeedMPH,WindSpeedGustMPH,Humidity,HourlyPrecipIn,Conditions,Clouds,dailyrainin,SolarRadiationWatts/m^2,SoftwareType,DateUTC
2013-05-30 00:01:00,42.0,42.0,-100.00,NW,310,1.0,6.0,100,0.02,,,0.61,0.000000,,2013-05-30 07:01:00,
2013-05-30 00:32:00,42.0,42.0,-100.00,NW,319,1.0,6.0,100,0.00,,,0.61,0.000000,,2013-05-30 07:32:00,
2013-05-30 00:42:00,42.0,42.0,-100.00,NW,319,1.0,6.0,100,0.00,,,0.61,0.000000,,2013-05-30 07:42:00,
2013-05-30 00:52:00,42.0,42.0,-100.00,NW,319,1.0,6.0,100,0.00,,,0.61,0.000000,,2013-05-30 07:52:00,
2013-05-30 01:01:00,42.0,42.0,-100.00,NW,319,1.0,6.0,100,0.00,,,0.61,0.000000,,2013-05-30 08:01:00,
2013-05-30 01:32:00,41.0,41.0,-100.00,SE,124,2.0,5.0,100,0.00,,,0.61,0.000000,,2013-05-30 08:32:00,
2013-05-30 01:42:00,41.0,41.0,-100.00,SE,124,2.0,5.0,100,0.00,,,0.61,0.000000,,2013-05-30 08:42:00,
2013-05-30 01:53:00,41.0,41.0,-100.00,SE,124,2.0,5.0,100,0.00,,,0.61,0.000000,,2013-05-30 08:53:00,
2013-05-30 02:01:00,41.0,41.0,-100.00,SE,124,2.0,5.0,100,0.00,,,0.61,0.000000,,2013-05-30 09:01:00,
2013-05-30 02:33:00,41.0,41.0,-100.00,NE,46,2.0,5.0,100,0.00,,,0.55,0.000000,,2013-05-30 09:33:00,
2013-05-30 02:43:00,41.0,41.0,-100.00,NE,46,2.0,5.0,100,0.00,,,0.55,0.000000,,2013-05-30 09:43:00,
2013-05-30 02:53:00,41.0,41.0,-100.00,NE,46,2.0,5.0,100,0.00,,,0.55,0.000000,,2013-05-30 09:53:00,
2013-05-30 03:02:00,41.0,41.0,-100.00,NE,46,2.0,5.0,100,0.00,,,0.55,0.000000,,2013-05-30 10:02:00,
2013-05-30 03:33:00,39.0,39.0,-100.00,SW,228,1.0,5.0,100,0.02,,,0.48,0.000000,,2013-05-30 10:33:00,
2013-05-30 03:42:00,39.0,39.0,-100.00,SW,228,1.0,5.0,100,0.02,,,0.48,0.000000,,2013-05-30 10:42:00,
2013-05-30 03:52:00,39.0,39.0,-100.00,SW,228,1.0,5.0,100,0.02,,,0.48,0.000000,,2013-05-30 10:52:00,
2013-05-30 04:02:00,39.0,39.0,-100.00,SW,228,1.0,5.0,100,0.02,,,0.48,0.000000,,2013-05-30 11:02:00,
2013-05-30 04:32:00,40.0,40.0,-100.00,SSW,197,1.0,5.0,100,0.04,,,-99.99,0.000000,,2013-05-30 11:32:00,
2013-05-30 04:42:00,40.0,40.0,-100.00,SSW,197,1.0,5.0,100,0.04,,,-99.99,0.000000,,2013-05-30 11:42:00,
2013-05-30 04:52:00,40.0,40.0,-100.00,SSW,197,1.0,5.0,100,0.04,,,-99.99,0.000000,,2013-05-30 11:52:00,
2013-05-30 05:01:00,40.0,40.0,-100.00,SSW,197,1.0,5.0,100,0.04,,,-99.99,0.000000,,2013-05-30 12:01:00,
2013-05-30 05:32:00,39.0,39.0,-100.00,South,174,2.0,6.0,100,0.00,,,0.43,0.000000,,2013-05-30 12:32:00,
2013-05-30 05:42:00,39.0,39.0,-100.00,South,174,2.0,6.0,100,0.00,,,0.43,0.000000,,2013-05-30 12:42:00,
2013-05-30 05:52:00,39.0,39.0,-100.00,South,174,2.0,6.0,100,0.00,,,0.43,0.000000,,2013-05-30 12:52:00,
2013-05-30 06:01:00,39.0,39.0,-100.00,South,174,2.0,6.0,100,0.00,,,0.43,0.000000,,2013-05-30 13:01:00,
2013-05-30 06:32:00,39.0,39.0,-100.00,ESE,123,1.0,7.0,100,0.00,,,0.40,12.000000,,2013-05-30 13:32:00,
2013-05-30 06:42:00,39.0,39.0,-100.00,ESE,123,1.0,7.0,100,0.00,,,0.40,12.000000,,2013-05-30 13:42:00,
2013-05-30 06:52:00,39.0,39.0,-100.00,ESE,123,1.0,7.0,100,0.00,,,0.40,12.000000,,2013-05-30 13:52:00,
2013-05-30 07:01:00,39.0,39.0,-100.00,ESE,123,1.0,7.0,100,0.00,,,0.40,12.000000,,2013-05-30 14:01:00,
2013-05-30 07:32:00,38.0,38.0,-100.00,NNE,12,1.0,7.0,100,0.00,,,0.34,41.000000,,2013-05-30 14:32:00,
2013-05-30 07:42:00,38.0,38.0,-100.00,NNE,12,1.0,7.0,100,0.00,,,0.34,41.000000,,2013-05-30 14:42:00,
2013-05-30 07:52:00,38.0,38.0,-100.00,NNE,12,1.0,7.0,100,0.00,,,0.34,41.000000,,2013-05-30 14:52:00,
2013-05-30 08:01:00,38.0,38.0,-100.00,NNE,12,1.0,7.0,100,0.00,,,0.34,41.000000,,2013-05-30 15:01:00,
2013-05-30 08:33:00,39.0,39.0,-100.00,NW,316,1.0,4.0,100,0.00,,,0.33,76.000000,,2013-05-30 15:33:00,
2013-05-30 08:42:00,39.0,39.0,-100.00,NW,316,1.0,4.0,100,0.00,,,0.33,76.000000,,2013-05-30 15:42:00,
2013-05-30 08:52:00,39.0,39.0,-100.00,NW,316,1.0,4.0,100,0.00,,,0.33,76.000000,,2013-05-30 15:52:00,
2013-05-30 09:03:00,39.0,39.0,-100.00,NW,316,1.0,4.0,100,0.00,,,0.33,76.000000,,2013-05-30 16:03:00,
2013-05-30 09:33:00,43.0,43.0,-100.00,NW,311,1.0,5.0,99,0.00,,,0.31,167.000000,,2013-05-30 16:33:00,
2013-05-30 09:42:00,43.0,43.0,-100.00,NW,311,1.0,5.0,99,0.00,,,0.31,167.000000,,2013-05-30 16:42:00,
2013-05-30 09:52:00,43.0,43.0,-100.00,NW,311,1.0,5.0,99,0.00,,,0.31,167.000000,,2013-05-30 16:52:00,
2013-05-30 10:02:00,43.0,43.0,-100.00,NW,311,1.0,5.0,99,0.00,,,0.31,167.000000,,2013-05-30 17:02:00,
2013-05-30 10:22:00,44.0,43.0,-100.00,ENE,78,1.0,5.0,95,0.04,,,0.34,278.000000,,2013-05-30 17:22:00,
2013-05-30 10:32:00,44.0,43.0,-100.00,ENE,78,1.0,5.0,95,0.04,,,0.34,278.000000,,2013-05-30 17:32:00,
2013-05-30 10:42:00,44.0,43.0,-100.00,ENE,78,1.0,5.0,95,0.04,,,0.34,278.000000,,2013-05-30 17:42:00,
2013-05-30 10:52:00,44.0,43.0,-100.00,ENE,78,1.0,5.0,95,0.04,,,0.34,278.000000,,2013-05-30 17:52:00,
2013-05-30 11:02:00,44.0,43.0,-100.00,ENE,78,1.0,5.0,95,0.04,,,0.34,278.000000,,2013-05-30 18:02:00,
2013-05-30 11:32:00,46.0,44.0,-100.00,WNW,298,1.0,4.0,94,0.04,,,0.35,258.000000,,2013-05-30 18:32:00,
2013-05-30 11:43:00,46.0,44.0,-100.00,WNW,298,1.0,4.0,94,0.04,,,0.35,258.000000,,2013-05-30 18:43:00,
2013-05-30 11:52:00,46.0,44.0,-100.00,WNW,298,1.0,4.0,94,0.04,,,0.35,258.000000,,2013-05-30 18:52:00,
2013-05-30 12:01:00,46.0,44.0,-100.00,WNW,298,1.0,4.0,94,0.04,,,0.35,258.000000,,2013-05-30 19:01:00,
2013-05-30 12:32:00,51.0,48.0,-100.00,WSW,241,2.0,6.0,88,0.00,,,0.30,551.000000,,2013-05-30 19:32:00,
2013-05-30 12:42:00,51.0,48.0,-100.00,WSW,241,2.0,6.0,88,0.00,,,0.30,551.000000,,2013-05-30 19:42:00,
2013-05-30 12:52:00,51.0,48.0,-100.00,WSW,241,2.0,6.0,88,0.00,,,0.30,551.000000,,2013-05-30 19:52:00,
2013-05-30 13:01:00,51.0,48.0,-100.00,WSW,241,2.0,6.0,88,0.00,,,0.30,551.000000,,2013-05-30 20:01:00,
2013-05-30 13:33:00,48.0,43.0,-100.00,ESE,109,2.0,6.0,84,0.00,,,0.25,416.000000,,2013-05-30 20:33:00,
2013-05-30 13:42:00,48.0,43.0,-100.00,ESE,109,2.0,6.0,84,0.00,,,0.25,416.000000,,2013-05-30 20:42:00,
2013-05-30 13:52:00,48.0,43.0,-100.00,ESE,109,2.0,6.0,84,0.00,,,0.25,416.000000,,2013-05-30 20:52:00,
2013-05-30 14:01:00,48.0,43.0,-100.00,ESE,109,2.0,6.0,84,0.00,,,0.25,416.000000,,2013-05-30 21:01:00,
2013-05-30 14:33:00,49.0,46.0,-100.00,SW,220,2.0,6.0,88,0.04,,,0.27,397.000000,,2013-05-30 21:33:00,
2013-05-30 14:43:00,49.0,46.0,-100.00,SW,220,2.0,6.0,88,0.04,,,0.27,397.000000,,2013-05-30 21:43:00,
2013-05-30 14:53:00,49.0,46.0,-100.00,SW,220,2.0,6.0,88,0.04,,,0.27,397.000000,,2013-05-30 21:53:00,
2013-05-30 15:02:00,49.0,46.0,-100.00,SW,220,2.0,6.0,88,0.04,,,0.27,397.000000,,2013-05-30 22:02:00,
2013-05-30 15:33:00,50.0,45.0,-100.00,West,273,2.0,8.0,83,0.00,,,0.25,545.000000,,2013-05-30 22:33:00,
2013-05-30 15:42:00,50.0,45.0,-100.00,West,273,2.0,8.0,83,0.00,,,0.25,545.000000,,2013-05-30 22:42:00,
2013-05-30 15:52:00,50.0,45.0,-100.00,West,273,2.0,8.0,83,0.00,,,0.25,545.000000,,2013-05-30 22:52:00,
2013-05-30 16:02:00,50.0,45.0,-100.00,West,273,2.0,8.0,83,0.00,,,0.25,545.000000,,2013-05-30 23:02:00,
2013-05-30 16:32:00,49.0,46.0,-100.00,NW,316,1.0,9.0,90,0.01,,,0.26,352.000000,,2013-05-30 23:32:00,
2013-05-30 16:42:00,49.0,46.0,-100.00,NW,316,1.0,9.0,90,0.01,,,0.26,352.000000,,2013-05-30 23:42:00,
2013-05-30 16:52:00,49.0,46.0,-100.00,NW,316,1.0,9.0,90,0.01,,,0.26,352.000000,,2013-05-30 23:52:00,
2013-05-30 17:01:00,49.0,46.0,-100.00,NW,316,1.0,9.0,90,0.01,,,0.26,352.000000,,2013-05-31 00:01:00,
2013-05-30 17:22:00,49.0,47.0,-100.00,NNE,14,1.0,7.0,94,0.01,,,0.24,263.000000,,2013-05-31 00:22:00,
2013-05-30 17:32:00,49.0,47.0,-100.00,NNE,14,1.0,7.0,94,0.01,,,0.24,263.000000,,2013-05-31 00:32:00,
2013-05-30 17:42:00,49.0,47.0,-100.00,NNE,14,1.0,7.0,94,0.01,,,0.24,263.000000,,2013-05-31 00:42:00,
2013-05-30 17:52:00,49.0,47.0,-100.00,NNE,14,1.0,7.0,94,0.01,,,0.24,263.000000,,2013-05-31 00:52:00,
2013-05-30 18:01:00,49.0,47.0,-100.00,NNE,14,1.0,7.0,94,0.01,,,0.24,263.000000,,2013-05-31 01:01:00,
2013-05-30 18:32:00,47.0,46.0,-100.00,SW,220,2.0,9.0,97,0.00,,,0.24,214.000000,,2013-05-31 01:32:00,
2013-05-30 18:42:00,47.0,46.0,-100.00,SW,220,2.0,9.0,97,0.00,,,0.24,214.000000,,2013-05-31 01:42:00,
2013-05-30 18:52:00,47.0,46.0,-100.00,SW,220,2.0,9.0,97,0.00,,,0.24,214.000000,,2013-05-31 01:52:00,
2013-05-30 19:02:00,47.0,46.0,-100.00,SW,220,2.0,9.0,97,0.00,,,0.24,214.000000,,2013-05-31 02:02:00,
2013-05-30 19:32:00,46.0,45.0,-100.00,West,266,1.0,8.0,98,0.00,,,0.24,129.000000,,2013-05-31 02:32:00,
2013-05-30 19:42:00,46.0,45.0,-100.00,West,266,1.0,8.0,98,0.00,,,0.24,129.000000,,2013-05-31 02:42:00,
2013-05-30 19:52:00,46.0,45.0,-100.00,West,266,1.0,8.0,98,0.00,,,0.24,129.000000,,2013-05-31 02:52:00,
2013-05-30 20:01:00,46.0,45.0,-100.00,West,266,1.0,8.0,98,0.00,,,0.24,129.000000,,2013-05-31 03:01:00,
2013-05-30 20:33:00,43.0,43.0,-100.00,West,279,1.0,6.0,100,0.05,,,0.28,44.000000,,2013-05-31 03:33:00,
2013-05-30 20:43:00,43.0,43.0,-100.00,West,279,1.0,6.0,100,0.05,,,0.28,44.000000,,2013-05-31 03:43:00,
2013-05-30 20:53:00,43.0,43.0,-100.00,West,279,1.0,6.0,100,0.05,,,0.28,44.000000,,2013-05-31 03:53:00,
2013-05-30 21:02:00,43.0,43.0,-100.00,West,279,1.0,6.0,100,0.05,,,0.28,44.000000,,2013-05-31 04:02:00,
2013-05-30 21:33:00,42.0,42.0,-100.00,WSW,242,1.0,5.0,100,0.00,,,0.28,7.000000,,2013-05-31 04:33:00,
2013-05-30 21:42:00,42.0,42.0,-100.00,WSW,242,1.0,5.0,100,0.00,,,0.28,7.000000,,2013-05-31 04:42:00,
2013-05-30 21:53:00,42.0,42.0,-100.00,WSW,242,1.0,5.0,100,0.00,,,0.28,7.000000,,2013-05-31 04:53:00,
2013-05-30 22:02:00,42.0,42.0,-100.00,WSW,242,1.0,5.0,100,0.00,,,0.28,7.000000,,2013-05-31 05:02:00,
2013-05-30 22:32:00,41.0,41.0,-100.00,NNW,339,0.0,4.0,100,0.00,,,0.27,0.000000,,2013-05-31 05:32:00,
2013-05-30 22:42:00,41.0,41.0,-100.00,NNW,339,0.0,4.0,100,0.00,,,0.27,0.000000,,2013-05-31 05:42:00,
2013-05-30 22:52:00,41.0,41.0,-100.00,NNW,339,0.0,4.0,100,0.00,,,0.27,0.000000,,2013-05-31 05:52:00,
2013-05-30 23:01:00,41.0,41.0,-100.00,NNW,339,0.0,4.0,100,0.00,,,0.27,0.000000,,2013-05-31 06:01:00,
2013-05-30 23:32:00,42.0,42.0,-100.00,NW,306,0.0,1.0,100,0.00,,,0.25,0.000000,,2013-05-31 06:32:00,
2013-05-30 23:42:00,42.0,42.0,-100.00,NW,306,0.0,1.0,100,0.00,,,0.25,0.000000,,2013-05-31 06:42:00,
2013-05-30 23:52:00,42.0,42.0,-100.00,NW,306,0.0,1.0,100,0.00,,,0.25,0.000000,,2013-05-31 06:52:00,